Weather History for Lexington, NC

Change the Weather History Date:

Saturday, November 3, 2012

  Actual Average (KINT) Record (KINT)
Temperature  
Mean Temperature 47 °F -  
Max Temperature 62 °F 62 °F 84 °F (1974)
Min Temperature 32 °F 43 °F 25 °F (1993)
Degree Days  
Heating Degree Days 18    
Moisture  
Dew Point 32 °F    
Average Humidity 68    
Maximum Humidity 100    
Minimum Humidity 31    
Precipitation  
Precipitation 0.00 in - - ()
Sea Level Pressure  
Sea Level Pressure 30.03 in    
Wind  
Wind Speed 1 mph (West)    
Max Wind Speed 6 mph    
Max Gust Speed -    
Visibility 10 miles    
Events      
Averages and records for this station are not official NWS values.
T = Trace of Precipitation, MM = Missing Value Source: NWS Daily Summary

Daily Weather History Graph

Daily Weather History Graph

Search for Another Location

Airport:

Trip Planner

Search our weather history database for the weather conditions in past years. The results will help you decide how hot, cold, wet, or windy it might be!

Date:

Astronomy

Nov. 03, 2012 Rise Set
Actual Time 7:45 AM EDT 6:23 PM EDT
Civil Twilight 7:19 AM EDT 6:49 PM EDT
Nautical Twilight 6:48 AM EDT 7:20 PM EDT
Astronomical Twilight 6:18 AM EDT 7:50 PM EDT
Moon 10:05 PM EDT (11/3) 11:45 AM EDT (11/3)
Length of Visible Light 11h 30m
Length of Day
10h 37m
Waning Gibbous, 80% of the Moon is Illuminated
Nov 3
Waning Gibbous
Nov 6
Last Quarter
Nov 13
New
Nov 20
First Quarter
Nov 28
Full

Hourly Weather History & Observations

Time (EDT) Temp. Windchill Dew Point Humidity Pressure Visibility Wind Dir Wind Speed Gust Speed Precip Events Conditions
12:15 AM 33.8 °F - 32.0 °F 93% 29.99 in 10.0 mi Calm Calm - N/A   Clear
12:35 AM 35.6 °F - 32.0 °F 87% 29.99 in 10.0 mi Calm Calm - N/A   Clear
12:55 AM 37.4 °F - 32.0 °F 81% 29.99 in 10.0 mi Calm Calm - N/A   Clear
1:15 AM 33.8 °F - 32.0 °F 93% 29.99 in 10.0 mi Calm Calm - N/A   Clear
1:35 AM 35.6 °F - 32.0 °F 87% 29.99 in 10.0 mi Calm Calm - N/A   Clear
1:55 AM 35.6 °F - 32.0 °F 87% 29.99 in 10.0 mi Calm Calm - N/A   Clear
2:15 AM 33.8 °F - 32.0 °F 93% 29.99 in 10.0 mi Calm Calm - N/A   Clear
2:35 AM 32.0 °F - 32.0 °F 100% 29.99 in 10.0 mi Calm Calm - N/A   Clear
2:55 AM 33.8 °F - 32.0 °F 93% 29.99 in 10.0 mi Calm Calm - N/A   Clear
3:15 AM 32.0 °F - 30.2 °F 93% 29.99 in 10.0 mi Calm Calm - N/A   Clear
3:35 AM 32.0 °F 28.7 °F 30.2 °F 93% 29.99 in 10.0 mi SSW 3.5 mph - N/A   Clear
3:55 AM 32.0 °F - 30.2 °F 93% 30.00 in 10.0 mi Calm Calm - N/A   Clear
4:15 AM 32.0 °F - 30.2 °F 93% 30.00 in 10.0 mi Calm Calm - N/A   Clear
4:35 AM 32.0 °F - 30.2 °F 93% 30.00 in 10.0 mi Calm Calm - N/A   Clear
4:55 AM 32.0 °F - 30.2 °F 93% 30.01 in 10.0 mi Calm Calm - N/A   Clear
5:15 AM 32.0 °F - 30.2 °F 93% 30.01 in 10.0 mi Calm Calm - N/A   Clear
5:35 AM 32.0 °F - 32.0 °F 100% 30.02 in 10.0 mi Calm Calm - N/A   Clear
5:55 AM 32.0 °F - 32.0 °F 100% 30.03 in 10.0 mi Calm Calm - N/A   Clear
6:15 AM 32.0 °F - 32.0 °F 100% 30.04 in 10.0 mi Calm Calm - N/A   Clear
6:35 AM 32.0 °F - 32.0 °F 100% 30.04 in 10.0 mi Calm Calm - N/A   Clear
6:55 AM 32.0 °F - 32.0 °F 100% 30.05 in 10.0 mi Calm Calm - N/A   Clear
7:15 AM 32.0 °F - 32.0 °F 100% 30.05 in 10.0 mi Calm Calm - N/A   Clear
7:35 AM 32.0 °F - 32.0 °F 100% 30.07 in 10.0 mi Calm Calm - N/A   Clear
7:55 AM 32.0 °F - 32.0 °F 100% 30.07 in 10.0 mi Calm Calm - N/A   Clear
8:15 AM 32.0 °F - 32.0 °F 100% 30.08 in 10.0 mi Calm Calm - N/A   Clear
8:35 AM 32.0 °F - 32.0 °F 100% 30.08 in 10.0 mi Calm Calm - N/A   Clear
8:55 AM 32.0 °F - 32.0 °F 100% 30.08 in 10.0 mi Calm Calm - N/A   Clear
9:15 AM 33.8 °F - 33.8 °F 100% 30.09 in 10.0 mi Calm Calm - N/A   Clear
9:35 AM 37.4 °F - 35.6 °F 93% 30.10 in 10.0 mi Calm Calm - N/A   Clear
9:55 AM 41.0 °F 39.0 °F 33.8 °F 76% 30.10 in 10.0 mi SSW 3.5 mph - N/A   Clear
10:15 AM 42.8 °F - 32.0 °F 66% 30.10 in 10.0 mi Calm Calm - N/A   Clear
10:35 AM 46.4 °F - 32.0 °F 57% 30.11 in 10.0 mi Calm Calm - N/A   Clear
10:55 AM 50.0 °F - 32.0 °F 50% 30.11 in 10.0 mi Calm Calm - N/A   Clear
11:15 AM 50.0 °F - 32.0 °F 50% 30.11 in 10.0 mi NW 3.5 mph - N/A   Clear
11:35 AM 51.8 °F - 30.2 °F 44% 30.11 in 10.0 mi NNW 3.5 mph - N/A   Clear
11:55 AM 51.8 °F - 32.0 °F 47% 30.10 in 10.0 mi Calm Calm - N/A   Clear
12:15 PM 51.8 °F - 30.2 °F 44% 30.10 in 10.0 mi Calm Calm - N/A   Clear
12:35 PM 53.6 °F - 32.0 °F 44% 30.09 in 10.0 mi WNW 3.5 mph - N/A   Clear
12:55 PM 53.6 °F - 32.0 °F 44% 30.08 in 10.0 mi Calm Calm - N/A   Clear
1:15 PM 55.4 °F - 32.0 °F 41% 30.07 in 10.0 mi NNE 3.5 mph - N/A   Clear
1:35 PM 55.4 °F - 32.0 °F 41% 30.06 in 10.0 mi Calm Calm - N/A   Clear
1:55 PM 59.0 °F - 32.0 °F 36% 30.06 in 10.0 mi West 3.5 mph - N/A   Clear
2:15 PM 59.0 °F - 32.0 °F 36% 30.05 in 10.0 mi WSW 4.6 mph - N/A   Clear
2:35 PM 59.0 °F - 32.0 °F 36% 30.04 in 10.0 mi Calm Calm - N/A   Clear
2:55 PM 60.8 °F - 30.2 °F 31% 30.04 in 10.0 mi SW 5.8 mph - N/A   Clear
3:15 PM 60.8 °F - 32.0 °F 34% 30.03 in 10.0 mi WNW 3.5 mph - N/A   Clear
3:35 PM 60.8 °F - 32.0 °F 34% 30.03 in 10.0 mi Calm Calm - N/A   Clear
3:55 PM 62.6 °F - 32.0 °F 32% 30.02 in 10.0 mi West 3.5 mph - N/A   Clear
4:15 PM 62.6 °F - 32.0 °F 32% 30.02 in 10.0 mi Calm Calm - N/A   Clear
4:35 PM 62.6 °F - 32.0 °F 32% 30.02 in 10.0 mi WSW 3.5 mph - N/A   Clear
4:55 PM 62.6 °F - 32.0 °F 32% 30.01 in 10.0 mi Calm Calm - N/A   Clear
5:15 PM 62.6 °F - 32.0 °F 32% 30.01 in 10.0 mi South 3.5 mph - N/A   Clear
5:35 PM 60.8 °F - 32.0 °F 34% 30.01 in 10.0 mi Calm Calm - N/A   Clear
5:55 PM 59.0 °F - 32.0 °F 36% 30.01 in 10.0 mi Calm Calm - N/A   Clear
6:15 PM 55.4 °F - 32.0 °F 41% 30.00 in 10.0 mi Calm Calm - N/A   Clear
6:35 PM 53.6 °F - 33.8 °F 47% 30.00 in 10.0 mi Calm Calm - N/A   Clear
6:55 PM 53.6 °F - 33.8 °F 47% 30.01 in 10.0 mi Calm Calm - N/A   Clear
7:15 PM 51.8 °F - 33.8 °F 50% 30.00 in 10.0 mi Calm Calm - N/A   Clear
7:35 PM 51.8 °F - 33.8 °F 50% 30.01 in 10.0 mi Calm Calm - N/A   Clear
7:55 PM 50.0 °F - 35.6 °F 58% 30.02 in 10.0 mi Calm Calm - N/A   Clear
8:15 PM 48.2 °F - 35.6 °F 62% 30.02 in 10.0 mi Calm Calm - N/A   Clear
8:35 PM 46.4 °F - 35.6 °F 66% 30.02 in 10.0 mi Calm Calm - N/A   Clear
8:55 PM 46.4 °F - 35.6 °F 66% 30.02 in 10.0 mi Calm Calm - N/A   Clear
9:15 PM 46.4 °F - 33.8 °F 62% 30.02 in 10.0 mi Calm Calm - N/A   Clear
9:35 PM 46.4 °F - 33.8 °F 62% 30.03 in 10.0 mi Calm Calm - N/A   Clear
9:55 PM 48.2 °F - 33.8 °F 58% 30.03 in 10.0 mi Calm Calm - N/A   Scattered Clouds
10:15 PM 46.4 °F - 35.6 °F 66% 30.02 in 10.0 mi Calm Calm - N/A   Scattered Clouds
10:35 PM 44.6 °F - 33.8 °F 66% 30.01 in 10.0 mi Calm Calm - N/A   Clear
10:55 PM 44.6 °F - 35.6 °F 71% 30.01 in 10.0 mi Calm Calm - N/A   Clear
11:15 PM 44.6 °F - 33.8 °F 66% 30.02 in 10.0 mi Calm Calm - N/A   Clear
11:35 PM 46.4 °F - 33.8 °F 62% 30.03 in 10.0 mi Calm Calm - N/A   Clear
11:55 PM 44.6 °F 42.2 °F 35.6 °F 71% 30.03 in 10.0 mi NNE 4.6 mph - N/A   Clear